sensor_id;sensor_type;location;lat;lon;timestamp;P1;durP1;ratioP1;P2;durP2;ratioP2
35056;SDS011;21241;51.828;19.574;2022-10-26T00:01:19;30.70;;;28.20;;
35056;SDS011;21241;51.828;19.574;2022-10-26T00:03:47;32.40;;;29.80;;
35056;SDS011;21241;51.828;19.574;2022-10-26T00:06:17;35.20;;;32.20;;
35056;SDS011;21241;51.828;19.574;2022-10-26T00:08:46;33.90;;;31.00;;
35056;SDS011;21241;51.828;19.574;2022-10-26T00:11:14;37.20;;;34.00;;
35056;SDS011;21241;51.828;19.574;2022-10-26T00:13:42;43.30;;;39.60;;
35056;SDS011;21241;51.828;19.574;2022-10-26T00:16:12;42.60;;;38.90;;
35056;SDS011;21241;51.828;19.574;2022-10-26T00:18:42;45.50;;;41.40;;
35056;SDS011;21241;51.828;19.574;2022-10-26T00:21:10;43.60;;;39.90;;
35056;SDS011;21241;51.828;19.574;2022-10-26T00:23:39;42.90;;;39.20;;
35056;SDS011;21241;51.828;19.574;2022-10-26T00:26:07;42.10;;;38.50;;
35056;SDS011;21241;51.828;19.574;2022-10-26T00:28:35;41.80;;;38.30;;
35056;SDS011;21241;51.828;19.574;2022-10-26T00:31:08;42.20;;;38.80;;
35056;SDS011;21241;51.828;19.574;2022-10-26T00:33:39;43.20;;;39.50;;
35056;SDS011;21241;51.828;19.574;2022-10-26T00:36:07;45.20;;;41.50;;
35056;SDS011;21241;51.828;19.574;2022-10-26T00:38:36;48.20;;;44.20;;
35056;SDS011;21241;51.828;19.574;2022-10-26T00:41:04;52.10;;;47.80;;
35056;SDS011;21241;51.828;19.574;2022-10-26T00:43:33;52.60;;;48.40;;
35056;SDS011;21241;51.828;19.574;2022-10-26T00:46:02;53.90;;;49.50;;
35056;SDS011;21241;51.828;19.574;2022-10-26T00:48:33;53.30;;;48.60;;
35056;SDS011;21241;51.828;19.574;2022-10-26T00:51:04;52.60;;;48.30;;
35056;SDS011;21241;51.828;19.574;2022-10-26T00:53:34;51.80;;;47.40;;
35056;SDS011;21241;51.828;19.574;2022-10-26T00:56:02;53.00;;;48.80;;
35056;SDS011;21241;51.828;19.574;2022-10-26T00:58:30;52.50;;;47.90;;
35056;SDS011;21241;51.828;19.574;2022-10-26T01:00:58;53.60;;;49.00;;
35056;SDS011;21241;51.828;19.574;2022-10-26T01:03:26;54.40;;;49.80;;
35056;SDS011;21241;51.828;19.574;2022-10-26T01:05:55;53.90;;;49.40;;
35056;SDS011;21241;51.828;19.574;2022-10-26T01:08:24;56.50;;;51.90;;
35056;SDS011;21241;51.828;19.574;2022-10-26T01:10:52;54.60;;;50.10;;
35056;SDS011;21241;51.828;19.574;2022-10-26T01:13:20;55.10;;;50.50;;
35056;SDS011;21241;51.828;19.574;2022-10-26T01:15:50;54.60;;;50.10;;
35056;SDS011;21241;51.828;19.574;2022-10-26T01:31:49;57.70;;;52.50;;
35056;SDS011;21241;51.828;19.574;2022-10-26T01:34:24;57.50;;;52.40;;
35056;SDS011;21241;51.828;19.574;2022-10-26T01:37:46;58.30;;;52.90;;
35056;SDS011;21241;51.828;19.574;2022-10-26T01:40:02;58.40;;;52.90;;
35056;SDS011;21241;51.828;19.574;2022-10-26T01:42:31;57.10;;;51.70;;
35056;SDS011;21241;51.828;19.574;2022-10-26T01:45:05;57.40;;;52.00;;
35056;SDS011;21241;51.828;19.574;2022-10-26T01:47:34;55.60;;;50.40;;
35056;SDS011;21241;51.828;19.574;2022-10-26T01:50:03;57.40;;;52.10;;
35056;SDS011;21241;51.828;19.574;2022-10-26T01:52:32;58.40;;;52.60;;
35056;SDS011;21241;51.828;19.574;2022-10-26T01:55:00;58.90;;;53.40;;
35056;SDS011;21241;51.828;19.574;2022-10-26T01:57:33;57.10;;;51.40;;
35056;SDS011;21241;51.828;19.574;2022-10-26T02:00:05;56.30;;;50.60;;
35056;SDS011;21241;51.828;19.574;2022-10-26T02:02:42;55.60;;;50.50;;
35056;SDS011;21241;51.828;19.574;2022-10-26T02:05:32;57.90;;;52.20;;
35056;SDS011;21241;51.828;19.574;2022-10-26T02:16:43;60.10;;;53.70;;
35056;SDS011;21241;51.828;19.574;2022-10-26T02:19:24;59.10;;;53.20;;
35056;SDS011;21241;51.828;19.574;2022-10-26T02:22:03;59.00;;;51.60;;
35056;SDS011;21241;51.828;19.574;2022-10-26T02:24:46;57.40;;;51.30;;
35056;SDS011;21241;51.828;19.574;2022-10-26T02:27:22;60.80;;;52.60;;
35056;SDS011;21241;51.828;19.574;2022-10-26T02:29:52;63.80;;;52.70;;
35056;SDS011;21241;51.828;19.574;2022-10-26T02:32:21;61.60;;;52.90;;
35056;SDS011;21241;51.828;19.574;2022-10-26T02:34:50;66.10;;;53.30;;
35056;SDS011;21241;51.828;19.574;2022-10-26T02:37:18;66.20;;;53.20;;
35056;SDS011;21241;51.828;19.574;2022-10-26T02:39:47;61.80;;;51.50;;
35056;SDS011;21241;51.828;19.574;2022-10-26T02:42:16;65.70;;;52.50;;
35056;SDS011;21241;51.828;19.574;2022-10-26T02:44:46;66.80;;;53.90;;
35056;SDS011;21241;51.828;19.574;2022-10-26T02:47:17;67.50;;;55.50;;
35056;SDS011;21241;51.828;19.574;2022-10-26T02:49:45;67.10;;;54.40;;
35056;SDS011;21241;51.828;19.574;2022-10-26T02:52:25;68.40;;;54.30;;
35056;SDS011;21241;51.828;19.574;2022-10-26T02:57:37;68.00;;;54.60;;
35056;SDS011;21241;51.828;19.574;2022-10-26T03:00:08;67.60;;;55.00;;
35056;SDS011;21241;51.828;19.574;2022-10-26T03:02:38;65.00;;;53.00;;
35056;SDS011;21241;51.828;19.574;2022-10-26T03:05:10;66.20;;;52.80;;
35056;SDS011;21241;51.828;19.574;2022-10-26T03:07:40;62.60;;;51.00;;
35056;SDS011;21241;51.828;19.574;2022-10-26T03:10:08;64.90;;;51.50;;
35056;SDS011;21241;51.828;19.574;2022-10-26T03:12:37;65.30;;;52.10;;
35056;SDS011;21241;51.828;19.574;2022-10-26T03:15:04;64.70;;;52.40;;
35056;SDS011;21241;51.828;19.574;2022-10-26T03:17:32;57.80;;;48.40;;
35056;SDS011;21241;51.828;19.574;2022-10-26T03:20:00;60.10;;;48.30;;
35056;SDS011;21241;51.828;19.574;2022-10-26T03:22:28;59.30;;;50.10;;
35056;SDS011;21241;51.828;19.574;2022-10-26T03:24:55;55.80;;;49.20;;
35056;SDS011;21241;51.828;19.574;2022-10-26T03:27:23;55.30;;;48.50;;
35056;SDS011;21241;51.828;19.574;2022-10-26T03:29:50;55.80;;;48.20;;
35056;SDS011;21241;51.828;19.574;2022-10-26T03:32:18;57.30;;;49.30;;
35056;SDS011;21241;51.828;19.574;2022-10-26T03:34:46;56.60;;;50.30;;
35056;SDS011;21241;51.828;19.574;2022-10-26T03:37:14;53.30;;;47.60;;
35056;SDS011;21241;51.828;19.574;2022-10-26T03:39:41;53.20;;;47.50;;
35056;SDS011;21241;51.828;19.574;2022-10-26T03:42:09;53.90;;;48.20;;
35056;SDS011;21241;51.828;19.574;2022-10-26T03:44:37;54.30;;;48.50;;
35056;SDS011;21241;51.828;19.574;2022-10-26T03:47:04;55.00;;;48.10;;
35056;SDS011;21241;51.828;19.574;2022-10-26T03:49:32;53.90;;;48.00;;
35056;SDS011;21241;51.828;19.574;2022-10-26T03:51:59;53.90;;;48.30;;
35056;SDS011;21241;51.828;19.574;2022-10-26T03:54:27;53.70;;;47.90;;
35056;SDS011;21241;51.828;19.574;2022-10-26T03:56:55;55.90;;;48.70;;
35056;SDS011;21241;51.828;19.574;2022-10-26T03:59:22;56.90;;;49.60;;
35056;SDS011;21241;51.828;19.574;2022-10-26T04:01:50;60.40;;;49.30;;
35056;SDS011;21241;51.828;19.574;2022-10-26T04:04:23;54.50;;;48.60;;
35056;SDS011;21241;51.828;19.574;2022-10-26T04:06:51;57.20;;;49.20;;
35056;SDS011;21241;51.828;19.574;2022-10-26T04:09:18;62.60;;;50.10;;
35056;SDS011;21241;51.828;19.574;2022-10-26T04:11:46;62.60;;;50.60;;
35056;SDS011;21241;51.828;19.574;2022-10-26T04:14:13;60.70;;;49.20;;
35056;SDS011;21241;51.828;19.574;2022-10-26T04:16:41;62.20;;;50.90;;
35056;SDS011;21241;51.828;19.574;2022-10-26T04:19:08;55.70;;;48.20;;
35056;SDS011;21241;51.828;19.574;2022-10-26T04:21:36;55.20;;;47.70;;
35056;SDS011;21241;51.828;19.574;2022-10-26T04:24:04;60.00;;;50.60;;
35056;SDS011;21241;51.828;19.574;2022-10-26T04:26:31;63.10;;;50.90;;
35056;SDS011;21241;51.828;19.574;2022-10-26T04:28:59;60.80;;;50.30;;
35056;SDS011;21241;51.828;19.574;2022-10-26T04:31:27;56.50;;;48.60;;
35056;SDS011;21241;51.828;19.574;2022-10-26T04:33:54;52.10;;;46.50;;
35056;SDS011;21241;51.828;19.574;2022-10-26T04:36:22;55.70;;;47.70;;
35056;SDS011;21241;51.828;19.574;2022-10-26T04:38:49;55.80;;;46.60;;
35056;SDS011;21241;51.828;19.574;2022-10-26T04:41:17;51.40;;;45.10;;
35056;SDS011;21241;51.828;19.574;2022-10-26T04:43:44;51.90;;;45.50;;
35056;SDS011;21241;51.828;19.574;2022-10-26T04:46:12;52.70;;;45.90;;
35056;SDS011;21241;51.828;19.574;2022-10-26T04:48:43;55.40;;;46.40;;
35056;SDS011;21241;51.828;19.574;2022-10-26T04:51:10;53.70;;;44.80;;
35056;SDS011;21241;51.828;19.574;2022-10-26T04:53:38;57.10;;;46.20;;
35056;SDS011;21241;51.828;19.574;2022-10-26T04:56:06;51.60;;;45.70;;
35056;SDS011;21241;51.828;19.574;2022-10-26T04:58:33;53.50;;;44.60;;
35056;SDS011;21241;51.828;19.574;2022-10-26T05:01:01;56.60;;;45.50;;
35056;SDS011;21241;51.828;19.574;2022-10-26T05:03:29;49.70;;;42.80;;
35056;SDS011;21241;51.828;19.574;2022-10-26T05:05:57;53.60;;;44.70;;
35056;SDS011;21241;51.828;19.574;2022-10-26T05:08:26;54.70;;;44.50;;
35056;SDS011;21241;51.828;19.574;2022-10-26T05:10:55;54.80;;;43.30;;
35056;SDS011;21241;51.828;19.574;2022-10-26T05:13:22;53.00;;;43.00;;
35056;SDS011;21241;51.828;19.574;2022-10-26T05:15:53;53.40;;;42.80;;
35056;SDS011;21241;51.828;19.574;2022-10-26T05:18:21;53.50;;;41.10;;
35056;SDS011;21241;51.828;19.574;2022-10-26T05:20:50;53.90;;;42.80;;
35056;SDS011;21241;51.828;19.574;2022-10-26T05:23:19;54.60;;;43.10;;
35056;SDS011;21241;51.828;19.574;2022-10-26T05:25:46;55.80;;;41.80;;
35056;SDS011;21241;51.828;19.574;2022-10-26T05:28:14;54.00;;;43.30;;
35056;SDS011;21241;51.828;19.574;2022-10-26T05:30:43;58.70;;;42.70;;
35056;SDS011;21241;51.828;19.574;2022-10-26T05:33:12;56.20;;;41.90;;
35056;SDS011;21241;51.828;19.574;2022-10-26T05:35:40;62.80;;;43.70;;
35056;SDS011;21241;51.828;19.574;2022-10-26T05:38:12;54.10;;;41.20;;
35056;SDS011;21241;51.828;19.574;2022-10-26T05:40:48;60.80;;;45.20;;
35056;SDS011;21241;51.828;19.574;2022-10-26T05:43:18;60.20;;;44.80;;
35056;SDS011;21241;51.828;19.574;2022-10-26T05:45:46;57.10;;;40.40;;
35056;SDS011;21241;51.828;19.574;2022-10-26T05:48:14;58.20;;;39.80;;
35056;SDS011;21241;51.828;19.574;2022-10-26T05:50:41;57.60;;;39.90;;
35056;SDS011;21241;51.828;19.574;2022-10-26T05:53:09;56.10;;;40.20;;
35056;SDS011;21241;51.828;19.574;2022-10-26T05:55:37;60.90;;;42.60;;
35056;SDS011;21241;51.828;19.574;2022-10-26T05:58:08;54.80;;;40.70;;
35056;SDS011;21241;51.828;19.574;2022-10-26T06:00:43;49.10;;;38.30;;
35056;SDS011;21241;51.828;19.574;2022-10-26T06:03:37;51.40;;;37.80;;
35056;SDS011;21241;51.828;19.574;2022-10-26T06:06:12;43.30;;;36.70;;
35056;SDS011;21241;51.828;19.574;2022-10-26T06:08:40;45.70;;;35.00;;
35056;SDS011;21241;51.828;19.574;2022-10-26T06:11:09;46.00;;;36.00;;
35056;SDS011;21241;51.828;19.574;2022-10-26T06:13:37;46.40;;;36.90;;
35056;SDS011;21241;51.828;19.574;2022-10-26T06:16:24;43.60;;;33.80;;
35056;SDS011;21241;51.828;19.574;2022-10-26T06:19:14;43.90;;;33.90;;
35056;SDS011;21241;51.828;19.574;2022-10-26T06:30:42;55.00;;;38.70;;
35056;SDS011;21241;51.828;19.574;2022-10-26T06:33:10;64.90;;;41.80;;
35056;SDS011;21241;51.828;19.574;2022-10-26T06:35:57;64.60;;;43.30;;
35056;SDS011;21241;51.828;19.574;2022-10-26T06:38:41;75.10;;;46.80;;
35056;SDS011;21241;51.828;19.574;2022-10-26T06:41:11;67.90;;;44.70;;
35056;SDS011;21241;51.828;19.574;2022-10-26T06:43:45;70.40;;;45.00;;
35056;SDS011;21241;51.828;19.574;2022-10-26T06:54:51;41.80;;;34.40;;
35056;SDS011;21241;51.828;19.574;2022-10-26T06:57:21;38.70;;;34.50;;
35056;SDS011;21241;51.828;19.574;2022-10-26T06:59:57;38.70;;;34.60;;
35056;SDS011;21241;51.828;19.574;2022-10-26T07:02:30;41.10;;;35.90;;
35056;SDS011;21241;51.828;19.574;2022-10-26T07:04:58;39.50;;;35.20;;
35056;SDS011;21241;51.828;19.574;2022-10-26T07:07:26;43.40;;;36.90;;
35056;SDS011;21241;51.828;19.574;2022-10-26T07:09:55;40.50;;;36.10;;
35056;SDS011;21241;51.828;19.574;2022-10-26T07:12:23;41.50;;;36.80;;
35056;SDS011;21241;51.828;19.574;2022-10-26T07:14:50;41.60;;;36.00;;
35056;SDS011;21241;51.828;19.574;2022-10-26T07:17:18;41.30;;;36.30;;
35056;SDS011;21241;51.828;19.574;2022-10-26T07:19:45;40.40;;;36.10;;
35056;SDS011;21241;51.828;19.574;2022-10-26T07:22:13;43.40;;;38.60;;
35056;SDS011;21241;51.828;19.574;2022-10-26T07:24:41;40.40;;;36.20;;
35056;SDS011;21241;51.828;19.574;2022-10-26T07:27:08;41.60;;;33.10;;
35056;SDS011;21241;51.828;19.574;2022-10-26T07:29:36;35.70;;;31.50;;
35056;SDS011;21241;51.828;19.574;2022-10-26T07:32:04;35.90;;;32.40;;
35056;SDS011;21241;51.828;19.574;2022-10-26T07:34:31;35.10;;;31.40;;
35056;SDS011;21241;51.828;19.574;2022-10-26T07:36:59;37.20;;;33.60;;
35056;SDS011;21241;51.828;19.574;2022-10-26T07:39:27;36.10;;;32.60;;
35056;SDS011;21241;51.828;19.574;2022-10-26T07:41:59;37.00;;;33.30;;
35056;SDS011;21241;51.828;19.574;2022-10-26T07:44:26;35.10;;;31.70;;
35056;SDS011;21241;51.828;19.574;2022-10-26T07:46:54;30.00;;;27.00;;
35056;SDS011;21241;51.828;19.574;2022-10-26T07:49:21;27.30;;;24.40;;
35056;SDS011;21241;51.828;19.574;2022-10-26T07:51:54;27.10;;;24.50;;
35056;SDS011;21241;51.828;19.574;2022-10-26T07:54:22;28.40;;;25.60;;
35056;SDS011;21241;51.828;19.574;2022-10-26T07:56:49;30.00;;;26.90;;
35056;SDS011;21241;51.828;19.574;2022-10-26T07:59:17;32.10;;;28.90;;
35056;SDS011;21241;51.828;19.574;2022-10-26T08:01:44;33.20;;;28.50;;
35056;SDS011;21241;51.828;19.574;2022-10-26T08:04:12;33.10;;;30.00;;
35056;SDS011;21241;51.828;19.574;2022-10-26T08:06:41;34.80;;;31.20;;
35056;SDS011;21241;51.828;19.574;2022-10-26T08:09:08;33.50;;;30.20;;
35056;SDS011;21241;51.828;19.574;2022-10-26T08:11:36;34.00;;;30.60;;
35056;SDS011;21241;51.828;19.574;2022-10-26T08:14:04;32.10;;;29.00;;
35056;SDS011;21241;51.828;19.574;2022-10-26T08:16:31;31.30;;;28.40;;
35056;SDS011;21241;51.828;19.574;2022-10-26T08:19:01;35.70;;;31.60;;
35056;SDS011;21241;51.828;19.574;2022-10-26T08:21:28;34.80;;;30.40;;
35056;SDS011;21241;51.828;19.574;2022-10-26T08:24:07;32.40;;;29.10;;
35056;SDS011;21241;51.828;19.574;2022-10-26T08:26:35;31.80;;;28.40;;
35056;SDS011;21241;51.828;19.574;2022-10-26T08:29:02;30.10;;;26.90;;
35056;SDS011;21241;51.828;19.574;2022-10-26T08:31:30;33.50;;;28.70;;
35056;SDS011;21241;51.828;19.574;2022-10-26T08:33:58;30.90;;;27.60;;
35056;SDS011;21241;51.828;19.574;2022-10-26T08:36:26;33.20;;;29.70;;
35056;SDS011;21241;51.828;19.574;2022-10-26T08:38:54;34.30;;;30.50;;
35056;SDS011;21241;51.828;19.574;2022-10-26T08:41:35;33.50;;;30.00;;
35056;SDS011;21241;51.828;19.574;2022-10-26T08:44:25;36.00;;;30.90;;
35056;SDS011;21241;51.828;19.574;2022-10-26T08:47:02;37.40;;;33.30;;
35056;SDS011;21241;51.828;19.574;2022-10-26T08:49:39;40.60;;;35.40;;
35056;SDS011;21241;51.828;19.574;2022-10-26T08:52:16;41.30;;;36.00;;
35056;SDS011;21241;51.828;19.574;2022-10-26T08:54:50;41.80;;;37.10;;
35056;SDS011;21241;51.828;19.574;2022-10-26T08:57:26;44.30;;;37.80;;
35056;SDS011;21241;51.828;19.574;2022-10-26T08:59:59;41.50;;;37.30;;
35056;SDS011;21241;51.828;19.574;2022-10-26T09:02:31;43.40;;;37.80;;
35056;SDS011;21241;51.828;19.574;2022-10-26T09:04:58;43.30;;;38.90;;
35056;SDS011;21241;51.828;19.574;2022-10-26T09:07:39;42.80;;;38.40;;
35056;SDS011;21241;51.828;19.574;2022-10-26T09:24:13;35.30;;;31.70;;
35056;SDS011;21241;51.828;19.574;2022-10-26T09:26:55;34.70;;;31.40;;
35056;SDS011;21241;51.828;19.574;2022-10-26T09:29:37;34.60;;;31.40;;
35056;SDS011;21241;51.828;19.574;2022-10-26T09:32:09;34.00;;;30.60;;
35056;SDS011;21241;51.828;19.574;2022-10-26T09:34:55;33.00;;;30.10;;
35056;SDS011;21241;51.828;19.574;2022-10-26T09:37:26;33.40;;;30.10;;
35056;SDS011;21241;51.828;19.574;2022-10-26T09:40:04;33.20;;;30.20;;
35056;SDS011;21241;51.828;19.574;2022-10-26T09:42:46;34.40;;;31.20;;
35056;SDS011;21241;51.828;19.574;2022-10-26T09:45:31;34.80;;;31.80;;
35056;SDS011;21241;51.828;19.574;2022-10-26T09:48:19;35.90;;;32.50;;
35056;SDS011;21241;51.828;19.574;2022-10-26T09:51:00;38.50;;;34.80;;
35056;SDS011;21241;51.828;19.574;2022-10-26T09:53:31;41.90;;;37.70;;
35056;SDS011;21241;51.828;19.574;2022-10-26T09:56:03;41.70;;;37.40;;
35056;SDS011;21241;51.828;19.574;2022-10-26T09:58:40;40.30;;;36.20;;
35056;SDS011;21241;51.828;19.574;2022-10-26T10:01:28;40.10;;;36.00;;
35056;SDS011;21241;51.828;19.574;2022-10-26T10:07:10;38.40;;;34.60;;
35056;SDS011;21241;51.828;19.574;2022-10-26T10:09:40;33.40;;;30.40;;
35056;SDS011;21241;51.828;19.574;2022-10-26T10:12:17;28.80;;;26.10;;
35056;SDS011;21241;51.828;19.574;2022-10-26T10:14:56;30.90;;;28.00;;
35056;SDS011;21241;51.828;19.574;2022-10-26T10:17:25;28.40;;;25.90;;
35056;SDS011;21241;51.828;19.574;2022-10-26T10:19:52;29.20;;;26.60;;
35056;SDS011;21241;51.828;19.574;2022-10-26T10:22:23;29.90;;;27.30;;
35056;SDS011;21241;51.828;19.574;2022-10-26T10:24:52;31.20;;;28.40;;
35056;SDS011;21241;51.828;19.574;2022-10-26T10:27:22;30.40;;;27.80;;
35056;SDS011;21241;51.828;19.574;2022-10-26T10:29:50;29.10;;;26.60;;
35056;SDS011;21241;51.828;19.574;2022-10-26T10:32:20;30.70;;;28.10;;
35056;SDS011;21241;51.828;19.574;2022-10-26T10:34:50;30.00;;;27.60;;
35056;SDS011;21241;51.828;19.574;2022-10-26T10:37:27;31.40;;;28.40;;
35056;SDS011;21241;51.828;19.574;2022-10-26T10:40:14;30.10;;;27.20;;
35056;SDS011;21241;51.828;19.574;2022-10-26T10:42:46;29.50;;;26.90;;
35056;SDS011;21241;51.828;19.574;2022-10-26T10:45:19;29.40;;;26.80;;
35056;SDS011;21241;51.828;19.574;2022-10-26T10:48:02;30.20;;;27.60;;
35056;SDS011;21241;51.828;19.574;2022-10-26T10:50:32;29.30;;;26.80;;
35056;SDS011;21241;51.828;19.574;2022-10-26T10:56:06;33.30;;;30.10;;
35056;SDS011;21241;51.828;19.574;2022-10-26T10:58:48;30.30;;;27.70;;
35056;SDS011;21241;51.828;19.574;2022-10-26T11:01:20;32.70;;;29.60;;
35056;SDS011;21241;51.828;19.574;2022-10-26T11:03:56;31.20;;;28.40;;
35056;SDS011;21241;51.828;19.574;2022-10-26T11:06:42;31.90;;;29.00;;
35056;SDS011;21241;51.828;19.574;2022-10-26T11:09:11;30.40;;;27.70;;
35056;SDS011;21241;51.828;19.574;2022-10-26T11:11:42;29.10;;;26.80;;
35056;SDS011;21241;51.828;19.574;2022-10-26T11:19:45;27.60;;;25.40;;
35056;SDS011;21241;51.828;19.574;2022-10-26T11:22:18;26.90;;;24.70;;
35056;SDS011;21241;51.828;19.574;2022-10-26T11:27:37;28.20;;;25.60;;
35056;SDS011;21241;51.828;19.574;2022-10-26T11:35:27;26.90;;;24.50;;
35056;SDS011;21241;51.828;19.574;2022-10-26T11:38:09;30.90;;;28.10;;
35056;SDS011;21241;51.828;19.574;2022-10-26T11:40:56;26.90;;;24.70;;
35056;SDS011;21241;51.828;19.574;2022-10-26T11:46:27;22.00;;;20.00;;
35056;SDS011;21241;51.828;19.574;2022-10-26T11:49:10;19.60;;;17.80;;
35056;SDS011;21241;51.828;19.574;2022-10-26T11:51:42;20.20;;;18.30;;
35056;SDS011;21241;51.828;19.574;2022-10-26T11:54:15;20.60;;;18.70;;
35056;SDS011;21241;51.828;19.574;2022-10-26T11:56:52;20.40;;;18.70;;
35056;SDS011;21241;51.828;19.574;2022-10-26T11:59:22;20.00;;;18.30;;
35056;SDS011;21241;51.828;19.574;2022-10-26T12:07:46;18.70;;;17.10;;
35056;SDS011;21241;51.828;19.574;2022-10-26T12:10:20;17.50;;;16.10;;
35056;SDS011;21241;51.828;19.574;2022-10-26T12:12:54;17.60;;;15.90;;
35056;SDS011;21241;51.828;19.574;2022-10-26T12:15:28;19.30;;;17.70;;
35056;SDS011;21241;51.828;19.574;2022-10-26T12:18:28;18.50;;;16.80;;
35056;SDS011;21241;51.828;19.574;2022-10-26T12:21:23;18.70;;;16.80;;
35056;SDS011;21241;51.828;19.574;2022-10-26T12:23:53;17.90;;;16.40;;
35056;SDS011;21241;51.828;19.574;2022-10-26T12:33:58;18.10;;;16.50;;
35056;SDS011;21241;51.828;19.574;2022-10-26T12:39:35;14.50;;;13.30;;
35056;SDS011;21241;51.828;19.574;2022-10-26T12:47:09;14.20;;;13.00;;
35056;SDS011;21241;51.828;19.574;2022-10-26T12:49:57;12.20;;;11.30;;
35056;SDS011;21241;51.828;19.574;2022-10-26T12:52:39;12.20;;;11.10;;
35056;SDS011;21241;51.828;19.574;2022-10-26T12:57:54;11.50;;;10.60;;
35056;SDS011;21241;51.828;19.574;2022-10-26T13:00:25;11.30;;;10.30;;
35056;SDS011;21241;51.828;19.574;2022-10-26T13:08:23;11.70;;;10.60;;
35056;SDS011;21241;51.828;19.574;2022-10-26T13:13:56;11.40;;;10.50;;
35056;SDS011;21241;51.828;19.574;2022-10-26T13:16:25;10.80;;;9.90;;
35056;SDS011;21241;51.828;19.574;2022-10-26T13:18:54;9.50;;;8.60;;
35056;SDS011;21241;51.828;19.574;2022-10-26T13:21:22;11.30;;;10.40;;
35056;SDS011;21241;51.828;19.574;2022-10-26T13:26:25;10.60;;;9.70;;
35056;SDS011;21241;51.828;19.574;2022-10-26T13:28:58;9.90;;;8.90;;
35056;SDS011;21241;51.828;19.574;2022-10-26T13:39:34;10.50;;;9.70;;
35056;SDS011;21241;51.828;19.574;2022-10-26T13:42:04;11.20;;;10.20;;
35056;SDS011;21241;51.828;19.574;2022-10-26T13:44:34;10.50;;;9.50;;
35056;SDS011;21241;51.828;19.574;2022-10-26T13:47:07;10.50;;;9.70;;
35056;SDS011;21241;51.828;19.574;2022-10-26T13:50:03;10.60;;;9.70;;
35056;SDS011;21241;51.828;19.574;2022-10-26T13:52:37;10.40;;;9.60;;
35056;SDS011;21241;51.828;19.574;2022-10-26T13:55:23;11.20;;;10.30;;
35056;SDS011;21241;51.828;19.574;2022-10-26T14:00:40;11.60;;;10.40;;
35056;SDS011;21241;51.828;19.574;2022-10-26T14:03:27;11.40;;;10.30;;
35056;SDS011;21241;51.828;19.574;2022-10-26T14:05:55;14.30;;;10.40;;
35056;SDS011;21241;51.828;19.574;2022-10-26T14:08:23;12.80;;;10.60;;
35056;SDS011;21241;51.828;19.574;2022-10-26T14:10:54;10.50;;;9.60;;
35056;SDS011;21241;51.828;19.574;2022-10-26T14:13:24;12.80;;;11.40;;
35056;SDS011;21241;51.828;19.574;2022-10-26T14:15:53;13.40;;;12.10;;
35056;SDS011;21241;51.828;19.574;2022-10-26T14:18:22;13.60;;;11.30;;
35056;SDS011;21241;51.828;19.574;2022-10-26T14:21:03;16.50;;;11.60;;
35056;SDS011;21241;51.828;19.574;2022-10-26T14:23:52;14.20;;;12.80;;
35056;SDS011;21241;51.828;19.574;2022-10-26T14:26:29;13.10;;;11.10;;
35056;SDS011;21241;51.828;19.574;2022-10-26T14:29:12;11.60;;;10.50;;
35056;SDS011;21241;51.828;19.574;2022-10-26T14:31:42;12.30;;;11.20;;
35056;SDS011;21241;51.828;19.574;2022-10-26T14:34:10;13.20;;;12.00;;
35056;SDS011;21241;51.828;19.574;2022-10-26T14:39:21;13.90;;;12.50;;
35056;SDS011;21241;51.828;19.574;2022-10-26T14:41:56;14.40;;;12.70;;
35056;SDS011;21241;51.828;19.574;2022-10-26T14:44:26;14.30;;;12.80;;
35056;SDS011;21241;51.828;19.574;2022-10-26T14:46:54;15.40;;;13.90;;
35056;SDS011;21241;51.828;19.574;2022-10-26T14:49:22;13.10;;;11.90;;
35056;SDS011;21241;51.828;19.574;2022-10-26T14:51:58;14.10;;;11.50;;
35056;SDS011;21241;51.828;19.574;2022-10-26T14:54:27;12.50;;;11.40;;
35056;SDS011;21241;51.828;19.574;2022-10-26T14:56:55;17.00;;;13.10;;
35056;SDS011;21241;51.828;19.574;2022-10-26T15:04:56;13.40;;;12.20;;
35056;SDS011;21241;51.828;19.574;2022-10-26T15:07:34;14.90;;;13.50;;
35056;SDS011;21241;51.828;19.574;2022-10-26T15:10:04;16.00;;;14.50;;
35056;SDS011;21241;51.828;19.574;2022-10-26T15:12:35;16.10;;;14.70;;
35056;SDS011;21241;51.828;19.574;2022-10-26T15:17:41;16.70;;;15.10;;
35056;SDS011;21241;51.828;19.574;2022-10-26T15:20:16;16.80;;;15.10;;
35056;SDS011;21241;51.828;19.574;2022-10-26T15:22:52;18.50;;;16.60;;
35056;SDS011;21241;51.828;19.574;2022-10-26T15:25:26;20.00;;;17.90;;
35056;SDS011;21241;51.828;19.574;2022-10-26T15:28:07;20.20;;;17.70;;
35056;SDS011;21241;51.828;19.574;2022-10-26T15:30:57;20.00;;;18.00;;
35056;SDS011;21241;51.828;19.574;2022-10-26T15:36:16;20.00;;;18.00;;
35056;SDS011;21241;51.828;19.574;2022-10-26T15:38:48;20.30;;;18.30;;
35056;SDS011;21241;51.828;19.574;2022-10-26T15:44:01;20.20;;;18.30;;
35056;SDS011;21241;51.828;19.574;2022-10-26T15:46:35;18.90;;;16.80;;
35056;SDS011;21241;51.828;19.574;2022-10-26T15:49:05;19.60;;;17.70;;
35056;SDS011;21241;51.828;19.574;2022-10-26T15:51:33;19.90;;;17.80;;
35056;SDS011;21241;51.828;19.574;2022-10-26T15:54:02;41.70;;;38.60;;
35056;SDS011;21241;51.828;19.574;2022-10-26T15:56:31;123.10;;;114.30;;
35056;SDS011;21241;51.828;19.574;2022-10-26T15:58:58;50.90;;;46.80;;
35056;SDS011;21241;51.828;19.574;2022-10-26T16:01:27;43.40;;;39.70;;
35056;SDS011;21241;51.828;19.574;2022-10-26T16:03:55;47.60;;;43.70;;
35056;SDS011;21241;51.828;19.574;2022-10-26T16:06:25;43.40;;;39.80;;
35056;SDS011;21241;51.828;19.574;2022-10-26T16:08:54;30.80;;;28.10;;
35056;SDS011;21241;51.828;19.574;2022-10-26T16:11:23;24.00;;;21.70;;
35056;SDS011;21241;51.828;19.574;2022-10-26T16:13:51;21.60;;;19.50;;
35056;SDS011;21241;51.828;19.574;2022-10-26T16:16:18;21.60;;;19.50;;
35056;SDS011;21241;51.828;19.574;2022-10-26T16:18:46;20.30;;;18.50;;
35056;SDS011;21241;51.828;19.574;2022-10-26T16:21:27;22.60;;;20.60;;
35056;SDS011;21241;51.828;19.574;2022-10-26T16:23:55;34.30;;;31.70;;
35056;SDS011;21241;51.828;19.574;2022-10-26T16:26:26;34.60;;;31.90;;
35056;SDS011;21241;51.828;19.574;2022-10-26T16:28:53;28.90;;;26.50;;
35056;SDS011;21241;51.828;19.574;2022-10-26T16:31:21;22.80;;;20.60;;
35056;SDS011;21241;51.828;19.574;2022-10-26T16:33:48;20.90;;;19.20;;
35056;SDS011;21241;51.828;19.574;2022-10-26T16:36:16;28.70;;;26.30;;
35056;SDS011;21241;51.828;19.574;2022-10-26T16:38:44;28.00;;;25.70;;
35056;SDS011;21241;51.828;19.574;2022-10-26T16:41:12;29.30;;;26.90;;
35056;SDS011;21241;51.828;19.574;2022-10-26T16:43:41;32.40;;;29.80;;
35056;SDS011;21241;51.828;19.574;2022-10-26T16:46:14;33.20;;;30.30;;
35056;SDS011;21241;51.828;19.574;2022-10-26T16:48:43;31.10;;;28.40;;
35056;SDS011;21241;51.828;19.574;2022-10-26T16:51:13;30.00;;;27.30;;
35056;SDS011;21241;51.828;19.574;2022-10-26T16:53:45;30.40;;;27.70;;
35056;SDS011;21241;51.828;19.574;2022-10-26T16:56:14;32.40;;;29.60;;